sensor_id;sensor_type;location;lat;lon;timestamp;temperature;humidity
36424;DHT22;22458;45.328;9.514;2023-05-16T00:00:06;20.00;82.10
36424;DHT22;22458;45.328;9.514;2023-05-16T00:02:34;20.00;82.10
36424;DHT22;22458;45.328;9.514;2023-05-16T00:05:02;20.00;82.00
36424;DHT22;22458;45.328;9.514;2023-05-16T00:07:29;20.00;82.00
36424;DHT22;22458;45.328;9.514;2023-05-16T00:09:55;20.00;82.10
36424;DHT22;22458;45.328;9.514;2023-05-16T00:12:21;19.90;82.40
36424;DHT22;22458;45.328;9.514;2023-05-16T00:14:47;19.90;82.30
36424;DHT22;22458;45.328;9.514;2023-05-16T00:17:14;19.80;82.40
36424;DHT22;22458;45.328;9.514;2023-05-16T00:19:42;19.80;82.40
36424;DHT22;22458;45.328;9.514;2023-05-16T00:22:09;19.80;82.50
36424;DHT22;22458;45.328;9.514;2023-05-16T00:24:36;19.90;82.50
36424;DHT22;22458;45.328;9.514;2023-05-16T00:27:02;19.80;82.40
36424;DHT22;22458;45.328;9.514;2023-05-16T00:29:30;19.80;82.60
36424;DHT22;22458;45.328;9.514;2023-05-16T00:31:57;19.80;82.70
36424;DHT22;22458;45.328;9.514;2023-05-16T00:34:23;19.70;82.70
36424;DHT22;22458;45.328;9.514;2023-05-16T00:36:51;19.70;82.70
36424;DHT22;22458;45.328;9.514;2023-05-16T00:39:17;19.70;82.70
36424;DHT22;22458;45.328;9.514;2023-05-16T00:41:43;19.60;83.10
36424;DHT22;22458;45.328;9.514;2023-05-16T00:44:09;19.60;83.30
36424;DHT22;22458;45.328;9.514;2023-05-16T00:46:35;19.60;83.30
36424;DHT22;22458;45.328;9.514;2023-05-16T00:49:01;19.50;83.30
36424;DHT22;22458;45.328;9.514;2023-05-16T00:51:27;19.50;83.30
36424;DHT22;22458;45.328;9.514;2023-05-16T00:53:54;19.50;83.20
36424;DHT22;22458;45.328;9.514;2023-05-16T00:56:20;19.50;83.90
36424;DHT22;22458;45.328;9.514;2023-05-16T00:58:46;19.50;83.40
36424;DHT22;22458;45.328;9.514;2023-05-16T01:01:12;19.50;83.20
36424;DHT22;22458;45.328;9.514;2023-05-16T01:03:38;19.50;83.20
36424;DHT22;22458;45.328;9.514;2023-05-16T01:06:05;19.40;83.10
36424;DHT22;22458;45.328;9.514;2023-05-16T01:08:31;19.30;83.30
36424;DHT22;22458;45.328;9.514;2023-05-16T01:16:44;19.20;83.50
36424;DHT22;22458;45.328;9.514;2023-05-16T01:25:05;19.10;83.70
36424;DHT22;22458;45.328;9.514;2023-05-16T01:27:34;19.10;83.80
36424;DHT22;22458;45.328;9.514;2023-05-16T01:30:18;19.10;83.80
36424;DHT22;22458;45.328;9.514;2023-05-16T01:32:44;19.10;83.60
36424;DHT22;22458;45.328;9.514;2023-05-16T01:35:13;19.00;83.60
36424;DHT22;22458;45.328;9.514;2023-05-16T01:38:19;19.00;83.90
36424;DHT22;22458;45.328;9.514;2023-05-16T01:43:16;18.90;84.00
36424;DHT22;22458;45.328;9.514;2023-05-16T01:45:54;18.80;84.00
36424;DHT22;22458;45.328;9.514;2023-05-16T01:48:28;18.90;84.10
36424;DHT22;22458;45.328;9.514;2023-05-16T01:50:56;18.80;84.20
36424;DHT22;22458;45.328;9.514;2023-05-16T01:53:26;18.80;84.30
36424;DHT22;22458;45.328;9.514;2023-05-16T01:55:55;18.80;84.20
36424;DHT22;22458;45.328;9.514;2023-05-16T01:58:25;18.90;84.10
36424;DHT22;22458;45.328;9.514;2023-05-16T02:00:53;18.80;83.90
36424;DHT22;22458;45.328;9.514;2023-05-16T02:03:18;18.80;83.90
36424;DHT22;22458;45.328;9.514;2023-05-16T02:05:45;18.80;83.90
36424;DHT22;22458;45.328;9.514;2023-05-16T02:08:13;18.70;84.00
36424;DHT22;22458;45.328;9.514;2023-05-16T02:10:39;18.50;84.50
36424;DHT22;22458;45.328;9.514;2023-05-16T02:13:05;18.40;85.00
36424;DHT22;22458;45.328;9.514;2023-05-16T02:15:31;18.20;85.30
36424;DHT22;22458;45.328;9.514;2023-05-16T02:17:58;18.20;85.40
36424;DHT22;22458;45.328;9.514;2023-05-16T02:20:24;18.20;85.30
36424;DHT22;22458;45.328;9.514;2023-05-16T02:22:50;18.20;85.20
36424;DHT22;22458;45.328;9.514;2023-05-16T02:25:15;18.10;85.50
36424;DHT22;22458;45.328;9.514;2023-05-16T02:27:42;18.00;86.00
36424;DHT22;22458;45.328;9.514;2023-05-16T02:30:11;18.00;86.20
36424;DHT22;22458;45.328;9.514;2023-05-16T02:32:38;18.00;86.30
36424;DHT22;22458;45.328;9.514;2023-05-16T02:35:04;17.90;86.50
36424;DHT22;22458;45.328;9.514;2023-05-16T02:37:31;17.80;86.80
36424;DHT22;22458;45.328;9.514;2023-05-16T02:39:57;17.70;87.20
36424;DHT22;22458;45.328;9.514;2023-05-16T02:42:24;17.60;87.60
36424;DHT22;22458;45.328;9.514;2023-05-16T02:44:49;17.40;87.80
36424;DHT22;22458;45.328;9.514;2023-05-16T02:47:16;17.30;88.20
36424;DHT22;22458;45.328;9.514;2023-05-16T02:49:42;17.20;88.30
36424;DHT22;22458;45.328;9.514;2023-05-16T02:52:08;17.20;88.70
36424;DHT22;22458;45.328;9.514;2023-05-16T02:54:34;17.20;88.60
36424;DHT22;22458;45.328;9.514;2023-05-16T02:57:00;17.30;88.30
36424;DHT22;22458;45.328;9.514;2023-05-16T02:59:25;17.50;88.20
36424;DHT22;22458;45.328;9.514;2023-05-16T03:01:51;17.60;88.00
36424;DHT22;22458;45.328;9.514;2023-05-16T03:04:17;17.70;87.70
36424;DHT22;22458;45.328;9.514;2023-05-16T03:06:43;17.70;87.40
36424;DHT22;22458;45.328;9.514;2023-05-16T03:09:09;17.70;87.30
36424;DHT22;22458;45.328;9.514;2023-05-16T03:11:35;17.70;87.30
36424;DHT22;22458;45.328;9.514;2023-05-16T03:14:01;17.70;87.20
36424;DHT22;22458;45.328;9.514;2023-05-16T03:16:27;17.70;87.20
36424;DHT22;22458;45.328;9.514;2023-05-16T03:18:53;17.60;87.40
36424;DHT22;22458;45.328;9.514;2023-05-16T03:21:19;17.50;87.60
36424;DHT22;22458;45.328;9.514;2023-05-16T03:23:44;17.50;87.70
36424;DHT22;22458;45.328;9.514;2023-05-16T03:26:10;17.50;87.60
36424;DHT22;22458;45.328;9.514;2023-05-16T03:28:36;17.60;87.50
36424;DHT22;22458;45.328;9.514;2023-05-16T03:31:02;17.60;87.30
36424;DHT22;22458;45.328;9.514;2023-05-16T03:33:28;17.60;87.20
36424;DHT22;22458;45.328;9.514;2023-05-16T03:35:53;17.60;87.10
36424;DHT22;22458;45.328;9.514;2023-05-16T03:38:19;17.60;86.90
36424;DHT22;22458;45.328;9.514;2023-05-16T03:40:46;17.60;86.70
36424;DHT22;22458;45.328;9.514;2023-05-16T03:43:12;17.60;86.80
36424;DHT22;22458;45.328;9.514;2023-05-16T03:45:38;17.50;86.80
36424;DHT22;22458;45.328;9.514;2023-05-16T03:48:05;17.50;86.60
36424;DHT22;22458;45.328;9.514;2023-05-16T03:50:30;17.50;86.60
36424;DHT22;22458;45.328;9.514;2023-05-16T03:52:56;17.20;87.00
36424;DHT22;22458;45.328;9.514;2023-05-16T03:55:22;17.00;87.80
36424;DHT22;22458;45.328;9.514;2023-05-16T03:57:48;16.80;88.40
36424;DHT22;22458;45.328;9.514;2023-05-16T04:00:17;16.80;88.60
36424;DHT22;22458;45.328;9.514;2023-05-16T04:02:43;16.90;88.60
36424;DHT22;22458;45.328;9.514;2023-05-16T04:05:10;16.90;88.50
36424;DHT22;22458;45.328;9.514;2023-05-16T04:07:37;16.90;88.60
36424;DHT22;22458;45.328;9.514;2023-05-16T04:10:03;17.00;88.60
36424;DHT22;22458;45.328;9.514;2023-05-16T04:12:29;17.00;88.60
36424;DHT22;22458;45.328;9.514;2023-05-16T04:14:55;17.00;89.20
36424;DHT22;22458;45.328;9.514;2023-05-16T04:17:21;17.00;88.80
36424;DHT22;22458;45.328;9.514;2023-05-16T04:19:47;17.10;88.80
36424;DHT22;22458;45.328;9.514;2023-05-16T04:22:12;17.00;89.00
36424;DHT22;22458;45.328;9.514;2023-05-16T04:24:38;17.00;89.20
36424;DHT22;22458;45.328;9.514;2023-05-16T04:27:04;17.00;89.30
36424;DHT22;22458;45.328;9.514;2023-05-16T04:29:31;17.10;89.40
36424;DHT22;22458;45.328;9.514;2023-05-16T04:31:59;17.10;89.40
36424;DHT22;22458;45.328;9.514;2023-05-16T04:34:24;17.10;89.40
36424;DHT22;22458;45.328;9.514;2023-05-16T04:36:55;17.10;89.40
36424;DHT22;22458;45.328;9.514;2023-05-16T04:39:21;17.10;89.60
36424;DHT22;22458;45.328;9.514;2023-05-16T04:41:47;17.00;89.80
36424;DHT22;22458;45.328;9.514;2023-05-16T04:44:13;17.00;89.80
36424;DHT22;22458;45.328;9.514;2023-05-16T04:46:38;17.10;90.00
36424;DHT22;22458;45.328;9.514;2023-05-16T04:49:04;17.10;90.00
36424;DHT22;22458;45.328;9.514;2023-05-16T04:51:30;17.10;90.00
36424;DHT22;22458;45.328;9.514;2023-05-16T04:53:58;17.20;90.10
36424;DHT22;22458;45.328;9.514;2023-05-16T04:56:24;17.20;90.10
36424;DHT22;22458;45.328;9.514;2023-05-16T04:58:52;17.20;90.10
36424;DHT22;22458;45.328;9.514;2023-05-16T05:01:19;17.20;90.10
36424;DHT22;22458;45.328;9.514;2023-05-16T05:03:44;17.20;90.20
36424;DHT22;22458;45.328;9.514;2023-05-16T05:06:10;17.30;90.20
36424;DHT22;22458;45.328;9.514;2023-05-16T05:08:36;17.30;90.20
36424;DHT22;22458;45.328;9.514;2023-05-16T05:11:02;17.30;90.20
36424;DHT22;22458;45.328;9.514;2023-05-16T05:13:28;17.20;90.30
36424;DHT22;22458;45.328;9.514;2023-05-16T05:15:53;17.30;90.40
36424;DHT22;22458;45.328;9.514;2023-05-16T05:18:19;17.30;90.40
36424;DHT22;22458;45.328;9.514;2023-05-16T05:20:45;17.30;90.40
36424;DHT22;22458;45.328;9.514;2023-05-16T05:23:11;17.40;90.40
36424;DHT22;22458;45.328;9.514;2023-05-16T05:25:38;17.40;90.30
36424;DHT22;22458;45.328;9.514;2023-05-16T05:28:04;17.40;90.30
36424;DHT22;22458;45.328;9.514;2023-05-16T05:30:29;17.40;90.40
36424;DHT22;22458;45.328;9.514;2023-05-16T05:32:55;17.50;90.40
36424;DHT22;22458;45.328;9.514;2023-05-16T05:35:21;17.50;90.40
36424;DHT22;22458;45.328;9.514;2023-05-16T05:37:47;17.50;90.30
36424;DHT22;22458;45.328;9.514;2023-05-16T05:40:13;17.60;90.30
36424;DHT22;22458;45.328;9.514;2023-05-16T05:42:38;17.60;90.20
36424;DHT22;22458;45.328;9.514;2023-05-16T05:45:04;17.80;90.20
36424;DHT22;22458;45.328;9.514;2023-05-16T05:47:32;17.80;90.00
36424;DHT22;22458;45.328;9.514;2023-05-16T05:49:58;17.80;90.00
36424;DHT22;22458;45.328;9.514;2023-05-16T05:52:24;17.80;90.00
36424;DHT22;22458;45.328;9.514;2023-05-16T05:54:50;17.90;90.00
36424;DHT22;22458;45.328;9.514;2023-05-16T05:57:15;17.90;90.00
36424;DHT22;22458;45.328;9.514;2023-05-16T05:59:41;17.90;90.00
36424;DHT22;22458;45.328;9.514;2023-05-16T06:02:07;17.90;90.10
36424;DHT22;22458;45.328;9.514;2023-05-16T06:04:33;18.00;90.20
36424;DHT22;22458;45.328;9.514;2023-05-16T06:06:58;18.00;90.20
36424;DHT22;22458;45.328;9.514;2023-05-16T06:09:24;18.00;90.20
36424;DHT22;22458;45.328;9.514;2023-05-16T06:11:50;18.00;90.20
36424;DHT22;22458;45.328;9.514;2023-05-16T06:14:16;17.90;90.40
36424;DHT22;22458;45.328;9.514;2023-05-16T06:16:41;17.80;90.60
36424;DHT22;22458;45.328;9.514;2023-05-16T06:19:09;17.80;90.70
36424;DHT22;22458;45.328;9.514;2023-05-16T06:21:36;17.90;90.70
36424;DHT22;22458;45.328;9.514;2023-05-16T06:24:02;17.90;90.60
36424;DHT22;22458;45.328;9.514;2023-05-16T06:26:28;17.90;90.70
36424;DHT22;22458;45.328;9.514;2023-05-16T06:28:53;17.90;90.70
36424;DHT22;22458;45.328;9.514;2023-05-16T06:31:19;18.00;90.70
36424;DHT22;22458;45.328;9.514;2023-05-16T06:33:45;18.10;90.60
36424;DHT22;22458;45.328;9.514;2023-05-16T06:36:10;18.20;90.40
36424;DHT22;22458;45.328;9.514;2023-05-16T06:38:36;18.30;90.20
36424;DHT22;22458;45.328;9.514;2023-05-16T06:41:02;18.40;90.00
36424;DHT22;22458;45.328;9.514;2023-05-16T06:43:27;18.50;89.80
36424;DHT22;22458;45.328;9.514;2023-05-16T06:45:53;18.60;89.40
36424;DHT22;22458;45.328;9.514;2023-05-16T06:48:19;18.70;89.20
36424;DHT22;22458;45.328;9.514;2023-05-16T06:50:48;18.80;89.00
36424;DHT22;22458;45.328;9.514;2023-05-16T06:53:16;18.80;88.80
36424;DHT22;22458;45.328;9.514;2023-05-16T06:55:42;18.90;88.80
36424;DHT22;22458;45.328;9.514;2023-05-16T06:58:09;18.90;88.60
36424;DHT22;22458;45.328;9.514;2023-05-16T07:00:34;19.00;88.60
36424;DHT22;22458;45.328;9.514;2023-05-16T07:03:01;19.00;88.60
36424;DHT22;22458;45.328;9.514;2023-05-16T07:05:28;19.00;88.60
36424;DHT22;22458;45.328;9.514;2023-05-16T07:07:54;19.10;88.60
36424;DHT22;22458;45.328;9.514;2023-05-16T07:10:20;19.10;88.60
36424;DHT22;22458;45.328;9.514;2023-05-16T07:12:46;19.10;88.60
36424;DHT22;22458;45.328;9.514;2023-05-16T07:15:13;19.20;88.60
36424;DHT22;22458;45.328;9.514;2023-05-16T07:17:39;19.20;88.40
36424;DHT22;22458;45.328;9.514;2023-05-16T07:20:05;19.20;88.20
36424;DHT22;22458;45.328;9.514;2023-05-16T07:22:32;19.20;87.90
36424;DHT22;22458;45.328;9.514;2023-05-16T07:24:58;19.20;87.70
36424;DHT22;22458;45.328;9.514;2023-05-16T07:27:28;19.20;87.50
36424;DHT22;22458;45.328;9.514;2023-05-16T07:29:55;19.20;87.20
36424;DHT22;22458;45.328;9.514;2023-05-16T07:32:21;19.20;87.00
36424;DHT22;22458;45.328;9.514;2023-05-16T07:34:46;19.20;86.60
36424;DHT22;22458;45.328;9.514;2023-05-16T07:37:12;19.20;86.20
36424;DHT22;22458;45.328;9.514;2023-05-16T07:39:39;19.20;86.00
36424;DHT22;22458;45.328;9.514;2023-05-16T07:42:08;19.10;86.00
36424;DHT22;22458;45.328;9.514;2023-05-16T07:44:34;19.10;85.90
36424;DHT22;22458;45.328;9.514;2023-05-16T07:47:00;19.20;86.00
36424;DHT22;22458;45.328;9.514;2023-05-16T07:49:26;19.20;85.90
36424;DHT22;22458;45.328;9.514;2023-05-16T07:51:52;19.20;85.90
36424;DHT22;22458;45.328;9.514;2023-05-16T07:54:17;19.30;85.60
36424;DHT22;22458;45.328;9.514;2023-05-16T07:56:43;19.20;85.40
36424;DHT22;22458;45.328;9.514;2023-05-16T07:59:09;19.30;85.30
36424;DHT22;22458;45.328;9.514;2023-05-16T08:01:35;19.30;85.10
36424;DHT22;22458;45.328;9.514;2023-05-16T08:04:01;19.20;84.80
36424;DHT22;22458;45.328;9.514;2023-05-16T08:06:27;19.20;84.70
36424;DHT22;22458;45.328;9.514;2023-05-16T08:08:54;19.20;84.60
36424;DHT22;22458;45.328;9.514;2023-05-16T08:11:20;19.20;84.50
36424;DHT22;22458;45.328;9.514;2023-05-16T08:13:47;19.20;85.00
36424;DHT22;22458;45.328;9.514;2023-05-16T08:16:13;19.20;84.40
36424;DHT22;22458;45.328;9.514;2023-05-16T08:18:39;19.20;84.40
36424;DHT22;22458;45.328;9.514;2023-05-16T08:21:05;19.20;84.30
36424;DHT22;22458;45.328;9.514;2023-05-16T08:23:30;19.20;84.30
36424;DHT22;22458;45.328;9.514;2023-05-16T08:25:56;19.20;84.90
36424;DHT22;22458;45.328;9.514;2023-05-16T08:28:23;19.20;84.30
36424;DHT22;22458;45.328;9.514;2023-05-16T08:30:49;19.20;84.20
36424;DHT22;22458;45.328;9.514;2023-05-16T08:33:14;19.20;84.30
36424;DHT22;22458;45.328;9.514;2023-05-16T08:35:44;19.20;84.50
36424;DHT22;22458;45.328;9.514;2023-05-16T08:38:10;19.20;84.70
36424;DHT22;22458;45.328;9.514;2023-05-16T08:40:36;19.20;84.90
36424;DHT22;22458;45.328;9.514;2023-05-16T08:43:02;19.20;85.00
36424;DHT22;22458;45.328;9.514;2023-05-16T08:45:29;19.20;85.10
36424;DHT22;22458;45.328;9.514;2023-05-16T08:47:56;19.20;85.20
36424;DHT22;22458;45.328;9.514;2023-05-16T08:50:23;19.10;85.20
36424;DHT22;22458;45.328;9.514;2023-05-16T08:52:51;19.10;85.50
36424;DHT22;22458;45.328;9.514;2023-05-16T08:55:19;19.00;85.40
36424;DHT22;22458;45.328;9.514;2023-05-16T08:57:47;19.10;85.50
36424;DHT22;22458;45.328;9.514;2023-05-16T09:00:14;19.10;85.50
36424;DHT22;22458;45.328;9.514;2023-05-16T09:02:41;19.00;85.30
36424;DHT22;22458;45.328;9.514;2023-05-16T09:05:09;19.00;85.40
36424;DHT22;22458;45.328;9.514;2023-05-16T09:07:35;19.00;85.50
36424;DHT22;22458;45.328;9.514;2023-05-16T09:10:01;19.00;85.80
36424;DHT22;22458;45.328;9.514;2023-05-16T09:12:27;18.90;85.30
36424;DHT22;22458;45.328;9.514;2023-05-16T09:14:53;18.90;85.30
36424;DHT22;22458;45.328;9.514;2023-05-16T09:17:20;18.90;85.40
36424;DHT22;22458;45.328;9.514;2023-05-16T09:19:46;18.90;85.50
36424;DHT22;22458;45.328;9.514;2023-05-16T09:22:15;19.00;85.70
36424;DHT22;22458;45.328;9.514;2023-05-16T09:24:41;19.00;85.70
36424;DHT22;22458;45.328;9.514;2023-05-16T09:29:34;19.00;85.60
36424;DHT22;22458;45.328;9.514;2023-05-16T09:32:14;19.00;85.50
36424;DHT22;22458;45.328;9.514;2023-05-16T09:34:48;19.00;85.40
36424;DHT22;22458;45.328;9.514;2023-05-16T09:37:16;19.10;85.40
36424;DHT22;22458;45.328;9.514;2023-05-16T09:39:50;19.00;85.40
36424;DHT22;22458;45.328;9.514;2023-05-16T09:42:17;19.10;85.30
36424;DHT22;22458;45.328;9.514;2023-05-16T09:44:51;19.00;85.20
36424;DHT22;22458;45.328;9.514;2023-05-16T09:47:18;19.10;85.50
36424;DHT22;22458;45.328;9.514;2023-05-16T09:49:45;19.10;85.40
36424;DHT22;22458;45.328;9.514;2023-05-16T09:52:14;19.10;85.50
36424;DHT22;22458;45.328;9.514;2023-05-16T09:54:41;19.00;85.40
36424;DHT22;22458;45.328;9.514;2023-05-16T09:57:06;19.10;85.50
36424;DHT22;22458;45.328;9.514;2023-05-16T09:59:39;19.10;85.40
36424;DHT22;22458;45.328;9.514;2023-05-16T10:02:06;19.20;85.30
36424;DHT22;22458;45.328;9.514;2023-05-16T10:04:35;19.20;85.20
36424;DHT22;22458;45.328;9.514;2023-05-16T10:07:04;19.10;85.30
36424;DHT22;22458;45.328;9.514;2023-05-16T10:09:35;19.20;85.50
36424;DHT22;22458;45.328;9.514;2023-05-16T10:12:02;19.20;85.80
36424;DHT22;22458;45.328;9.514;2023-05-16T10:14:33;19.20;85.90
36424;DHT22;22458;45.328;9.514;2023-05-16T10:16:59;19.20;86.00
36424;DHT22;22458;45.328;9.514;2023-05-16T10:19:27;19.20;86.10
36424;DHT22;22458;45.328;9.514;2023-05-16T10:21:57;19.30;86.20
36424;DHT22;22458;45.328;9.514;2023-05-16T10:24:43;19.30;86.30
36424;DHT22;22458;45.328;9.514;2023-05-16T10:27:12;19.30;86.30
36424;DHT22;22458;45.328;9.514;2023-05-16T10:29:39;19.30;86.30
36424;DHT22;22458;45.328;9.514;2023-05-16T10:32:06;19.30;86.20
36424;DHT22;22458;45.328;9.514;2023-05-16T10:34:33;19.30;86.30
36424;DHT22;22458;45.328;9.514;2023-05-16T10:36:59;19.30;86.50
36424;DHT22;22458;45.328;9.514;2023-05-16T10:39:26;19.30;86.60
36424;DHT22;22458;45.328;9.514;2023-05-16T10:41:53;19.40;86.50
36424;DHT22;22458;45.328;9.514;2023-05-16T10:44:19;19.40;86.40
36424;DHT22;22458;45.328;9.514;2023-05-16T10:46:46;19.30;86.30
36424;DHT22;22458;45.328;9.514;2023-05-16T10:49:23;19.40;86.50
36424;DHT22;22458;45.328;9.514;2023-05-16T10:52:11;19.40;86.80
36424;DHT22;22458;45.328;9.514;2023-05-16T10:54:49;19.40;86.80
36424;DHT22;22458;45.328;9.514;2023-05-16T10:57:18;19.40;87.10
36424;DHT22;22458;45.328;9.514;2023-05-16T10:59:48;19.30;87.20
36424;DHT22;22458;45.328;9.514;2023-05-16T11:02:31;19.30;87.50
36424;DHT22;22458;45.328;9.514;2023-05-16T11:05:00;19.30;88.00
36424;DHT22;22458;45.328;9.514;2023-05-16T11:07:32;19.30;88.20
36424;DHT22;22458;45.328;9.514;2023-05-16T11:10:15;19.30;88.40
36424;DHT22;22458;45.328;9.514;2023-05-16T11:12:45;19.30;88.40
36424;DHT22;22458;45.328;9.514;2023-05-16T11:17:43;19.30;88.60
36424;DHT22;22458;45.328;9.514;2023-05-16T11:20:25;19.30;88.80
36424;DHT22;22458;45.328;9.514;2023-05-16T11:25:39;19.30;88.80
36424;DHT22;22458;45.328;9.514;2023-05-16T11:28:07;19.30;89.10
36424;DHT22;22458;45.328;9.514;2023-05-16T11:30:34;19.30;89.00
36424;DHT22;22458;45.328;9.514;2023-05-16T11:33:01;19.30;89.00
36424;DHT22;22458;45.328;9.514;2023-05-16T11:35:26;19.30;89.10
36424;DHT22;22458;45.328;9.514;2023-05-16T11:37:53;19.30;89.30
36424;DHT22;22458;45.328;9.514;2023-05-16T11:40:19;19.30;89.40
36424;DHT22;22458;45.328;9.514;2023-05-16T11:42:46;19.40;89.50
36424;DHT22;22458;45.328;9.514;2023-05-16T11:45:19;19.40;89.00
36424;DHT22;22458;45.328;9.514;2023-05-16T11:48:01;19.40;89.20
36424;DHT22;22458;45.328;9.514;2023-05-16T11:50:29;19.40;89.70
36424;DHT22;22458;45.328;9.514;2023-05-16T11:52:55;19.40;90.00
36424;DHT22;22458;45.328;9.514;2023-05-16T11:55:29;19.40;90.10
36424;DHT22;22458;45.328;9.514;2023-05-16T11:57:59;19.50;90.10
36424;DHT22;22458;45.328;9.514;2023-05-16T12:00:26;19.50;90.00
36424;DHT22;22458;45.328;9.514;2023-05-16T12:02:53;19.50;90.00
36424;DHT22;22458;45.328;9.514;2023-05-16T12:05:20;19.50;89.90
36424;DHT22;22458;45.328;9.514;2023-05-16T12:07:51;19.60;89.80
36424;DHT22;22458;45.328;9.514;2023-05-16T12:10:19;19.60;89.70
36424;DHT22;22458;45.328;9.514;2023-05-16T12:12:48;19.70;89.50
36424;DHT22;22458;45.328;9.514;2023-05-16T12:15:17;19.70;89.50
36424;DHT22;22458;45.328;9.514;2023-05-16T12:17:44;19.80;89.40
36424;DHT22;22458;45.328;9.514;2023-05-16T12:20:11;19.70;89.40
36424;DHT22;22458;45.328;9.514;2023-05-16T12:22:43;19.80;89.70
36424;DHT22;22458;45.328;9.514;2023-05-16T12:25:22;19.80;89.40
36424;DHT22;22458;45.328;9.514;2023-05-16T12:27:48;19.90;89.10
36424;DHT22;22458;45.328;9.514;2023-05-16T12:30:16;20.00;89.00
36424;DHT22;22458;45.328;9.514;2023-05-16T12:32:43;20.00;88.90
36424;DHT22;22458;45.328;9.514;2023-05-16T12:35:10;19.90;89.20
36424;DHT22;22458;45.328;9.514;2023-05-16T12:37:37;19.90;89.70
36424;DHT22;22458;45.328;9.514;2023-05-16T12:40:03;19.90;89.50
36424;DHT22;22458;45.328;9.514;2023-05-16T12:42:30;19.80;89.40
36424;DHT22;22458;45.328;9.514;2023-05-16T12:44:56;19.90;89.50
36424;DHT22;22458;45.328;9.514;2023-05-16T12:47:22;19.90;89.60
36424;DHT22;22458;45.328;9.514;2023-05-16T12:49:48;19.90;89.80
36424;DHT22;22458;45.328;9.514;2023-05-16T12:52:20;19.90;89.90
36424;DHT22;22458;45.328;9.514;2023-05-16T12:54:47;19.80;89.80
36424;DHT22;22458;45.328;9.514;2023-05-16T12:57:13;19.90;89.70
36424;DHT22;22458;45.328;9.514;2023-05-16T12:59:38;20.00;89.40
36424;DHT22;22458;45.328;9.514;2023-05-16T13:02:04;20.10;89.10
36424;DHT22;22458;45.328;9.514;2023-05-16T13:04:30;20.10;88.40
36424;DHT22;22458;45.328;9.514;2023-05-16T13:06:56;20.20;87.80
36424;DHT22;22458;45.328;9.514;2023-05-16T13:09:22;20.40;87.20
36424;DHT22;22458;45.328;9.514;2023-05-16T13:11:49;20.40;86.60
36424;DHT22;22458;45.328;9.514;2023-05-16T13:14:18;20.50;86.30
36424;DHT22;22458;45.328;9.514;2023-05-16T13:16:44;20.60;86.20
36424;DHT22;22458;45.328;9.514;2023-05-16T13:19:11;20.70;86.10
36424;DHT22;22458;45.328;9.514;2023-05-16T13:21:37;20.70;85.60
36424;DHT22;22458;45.328;9.514;2023-05-16T13:24:03;20.70;85.10
36424;DHT22;22458;45.328;9.514;2023-05-16T13:26:29;20.70;84.70
36424;DHT22;22458;45.328;9.514;2023-05-16T13:28:54;20.80;84.50
36424;DHT22;22458;45.328;9.514;2023-05-16T13:31:20;20.80;84.10
36424;DHT22;22458;45.328;9.514;2023-05-16T13:33:49;20.80;83.80
36424;DHT22;22458;45.328;9.514;2023-05-16T13:36:15;20.80;83.70
36424;DHT22;22458;45.328;9.514;2023-05-16T13:38:41;20.80;83.50
36424;DHT22;22458;45.328;9.514;2023-05-16T13:41:08;20.80;83.30
36424;DHT22;22458;45.328;9.514;2023-05-16T13:43:34;20.80;83.10
36424;DHT22;22458;45.328;9.514;2023-05-16T13:46:00;20.90;82.80
36424;DHT22;22458;45.328;9.514;2023-05-16T13:48:25;21.00;82.60
36424;DHT22;22458;45.328;9.514;2023-05-16T13:50:51;20.90;82.00
36424;DHT22;22458;45.328;9.514;2023-05-16T13:53:18;20.90;81.70
36424;DHT22;22458;45.328;9.514;2023-05-16T13:55:43;20.90;81.50
36424;DHT22;22458;45.328;9.514;2023-05-16T13:58:09;21.00;81.50
36424;DHT22;22458;45.328;9.514;2023-05-16T14:00:35;21.00;81.40
36424;DHT22;22458;45.328;9.514;2023-05-16T14:03:00;21.10;81.40
36424;DHT22;22458;45.328;9.514;2023-05-16T14:05:26;21.10;81.40
36424;DHT22;22458;45.328;9.514;2023-05-16T14:07:53;21.20;81.40
36424;DHT22;22458;45.328;9.514;2023-05-16T14:10:18;21.20;81.50
36424;DHT22;22458;45.328;9.514;2023-05-16T14:12:44;21.20;81.50
36424;DHT22;22458;45.328;9.514;2023-05-16T14:15:10;21.20;81.50
36424;DHT22;22458;45.328;9.514;2023-05-16T14:17:36;21.30;81.50
36424;DHT22;22458;45.328;9.514;2023-05-16T14:20:02;21.30;81.70
36424;DHT22;22458;45.328;9.514;2023-05-16T14:22:33;21.40;81.90
36424;DHT22;22458;45.328;9.514;2023-05-16T14:24:58;21.40;81.80
36424;DHT22;22458;45.328;9.514;2023-05-16T14:27:24;21.50;81.70
36424;DHT22;22458;45.328;9.514;2023-05-16T14:29:50;21.50;81.40
36424;DHT22;22458;45.328;9.514;2023-05-16T14:32:17;21.50;81.40
36424;DHT22;22458;45.328;9.514;2023-05-16T14:34:42;21.50;81.50
36424;DHT22;22458;45.328;9.514;2023-05-16T14:37:08;21.60;81.40
36424;DHT22;22458;45.328;9.514;2023-05-16T14:39:35;21.60;81.30
36424;DHT22;22458;45.328;9.514;2023-05-16T14:42:00;21.60;80.80
36424;DHT22;22458;45.328;9.514;2023-05-16T14:44:26;21.60;80.40
36424;DHT22;22458;45.328;9.514;2023-05-16T14:46:52;21.60;80.30
36424;DHT22;22458;45.328;9.514;2023-05-16T14:49:18;21.60;80.10
36424;DHT22;22458;45.328;9.514;2023-05-16T14:51:43;21.60;79.70
36424;DHT22;22458;45.328;9.514;2023-05-16T14:54:13;21.60;79.40
36424;DHT22;22458;45.328;9.514;2023-05-16T14:56:40;21.60;79.40
36424;DHT22;22458;45.328;9.514;2023-05-16T14:59:06;21.70;79.40
36424;DHT22;22458;45.328;9.514;2023-05-16T15:01:32;21.70;79.10
36424;DHT22;22458;45.328;9.514;2023-05-16T15:03:57;21.70;78.80
36424;DHT22;22458;45.328;9.514;2023-05-16T15:06:23;21.80;78.50
36424;DHT22;22458;45.328;9.514;2023-05-16T15:08:49;21.80;78.60
36424;DHT22;22458;45.328;9.514;2023-05-16T15:11:15;21.80;78.70
36424;DHT22;22458;45.328;9.514;2023-05-16T15:13:41;21.80;78.80
36424;DHT22;22458;45.328;9.514;2023-05-16T15:16:06;21.90;78.80
36424;DHT22;22458;45.328;9.514;2023-05-16T15:18:32;21.80;78.50
36424;DHT22;22458;45.328;9.514;2023-05-16T15:20:58;21.90;78.50
36424;DHT22;22458;45.328;9.514;2023-05-16T15:23:24;21.90;78.40
36424;DHT22;22458;45.328;9.514;2023-05-16T15:25:50;22.00;78.00
36424;DHT22;22458;45.328;9.514;2023-05-16T15:28:16;22.10;77.70
36424;DHT22;22458;45.328;9.514;2023-05-16T15:30:43;22.10;77.50
36424;DHT22;22458;45.328;9.514;2023-05-16T15:33:09;22.10;77.40
36424;DHT22;22458;45.328;9.514;2023-05-16T15:35:35;22.10;77.40
36424;DHT22;22458;45.328;9.514;2023-05-16T15:38:01;22.20;77.60
36424;DHT22;22458;45.328;9.514;2023-05-16T15:40:27;22.20;77.50
36424;DHT22;22458;45.328;9.514;2023-05-16T15:42:52;22.20;77.40
36424;DHT22;22458;45.328;9.514;2023-05-16T15:45:18;22.20;76.70
36424;DHT22;22458;45.328;9.514;2023-05-16T15:47:44;22.10;76.20
36424;DHT22;22458;45.328;9.514;2023-05-16T15:50:10;22.10;76.00